createdAt,value
2018-06-14T00:00:31.938Z,101200.91
2018-06-14T00:03:01.397Z,101201.14
2018-06-14T00:05:31.029Z,101205.46
2018-06-14T00:08:00.584Z,101200.09
2018-06-14T00:10:30.176Z,101200.70
2018-06-14T00:13:00.069Z,101195.34
2018-06-14T00:15:29.893Z,101198.22
2018-06-14T00:17:59.904Z,101200.54
2018-06-14T00:20:29.308Z,101196.31
2018-06-14T00:22:58.796Z,101196.19
2018-06-14T00:25:28.726Z,101191.80
2018-06-14T00:27:58.436Z,101194.13
2018-06-14T00:30:28.646Z,101198.67
2018-06-14T00:32:58.366Z,101194.41
2018-06-14T00:35:28.310Z,101187.22
2018-06-14T00:37:59.221Z,101189.66
2018-06-14T00:40:29.021Z,101194.73
2018-06-14T00:42:59.137Z,101191.65
2018-06-14T00:45:29.064Z,101189.70
2018-06-14T00:47:58.589Z,101196.41
2018-06-14T00:50:28.193Z,101196.56
2018-06-14T00:52:58.624Z,101194.91
2018-06-14T00:55:28.607Z,101189.58
2018-06-14T00:57:58.283Z,101191.94
2018-06-14T01:00:28.089Z,101192.09
2018-06-14T01:02:57.611Z,101189.98
2018-06-14T01:05:27.941Z,101183.80
2018-06-14T01:07:57.784Z,101186.84
2018-06-14T01:10:27.234Z,101184.22
2018-06-14T01:12:57.307Z,101174.58
2018-06-14T01:15:27.119Z,101169.00
2018-06-14T01:17:56.632Z,101171.59
2018-06-14T01:20:26.202Z,101181.11
2018-06-14T01:22:55.758Z,101184.38
2018-06-14T01:25:25.344Z,101185.47
2018-06-14T01:27:54.717Z,101177.66
2018-06-14T01:30:24.069Z,101175.26
2018-06-14T01:32:53.521Z,101172.33
2018-06-14T01:35:22.854Z,101175.74
2018-06-14T01:38:03.491Z,101174.28
2018-06-14T01:40:33.148Z,101176.72
2018-06-14T01:43:02.735Z,101170.38
2018-06-14T01:45:32.445Z,101170.98
2018-06-14T01:48:01.817Z,101176.50
2018-06-14T01:50:31.257Z,101177.33
2018-06-14T01:53:01.475Z,101172.20
2018-06-14T01:55:32.587Z,101175.28
2018-06-14T01:58:03.194Z,101176.50
2018-06-14T02:00:32.741Z,101174.80
2018-06-14T02:03:02.414Z,101176.84
2018-06-14T02:05:32.100Z,101182.33
2018-06-14T02:08:01.731Z,101172.91
2018-06-14T02:10:31.315Z,101175.67
2018-06-14T02:13:00.961Z,101173.72
2018-06-14T02:15:30.740Z,101182.78
2018-06-14T02:18:00.662Z,101179.09
2018-06-14T02:20:30.525Z,101169.70
2018-06-14T02:22:59.988Z,101173.84
2018-06-14T02:25:29.795Z,101166.20
2018-06-14T02:27:59.668Z,101164.33
2018-06-14T02:30:29.266Z,101164.48
2018-06-14T02:32:58.815Z,101162.66
2018-06-14T02:35:28.843Z,101158.52
2018-06-14T02:37:58.386Z,101157.05
2018-06-14T02:40:28.764Z,101157.94
2018-06-14T02:42:58.452Z,101157.96
2018-06-14T02:45:28.697Z,101159.03
2018-06-14T02:47:58.517Z,101153.66
2018-06-14T02:50:28.886Z,101152.81
2018-06-14T02:52:58.817Z,101145.95
2018-06-14T02:55:28.815Z,101155.19
2018-06-14T02:57:59.145Z,101159.09
2018-06-14T03:00:28.669Z,101155.80
2018-06-14T03:02:58.100Z,101151.73
2018-06-14T03:05:27.687Z,101150.52
2018-06-14T03:07:57.291Z,101150.23
2018-06-14T03:10:26.688Z,101153.20
2018-06-14T03:12:56.544Z,101154.17
2018-06-14T03:15:27.485Z,101157.34
2018-06-14T03:17:57.199Z,101158.56
2018-06-14T03:20:28.548Z,101155.75
2018-06-14T03:22:59.306Z,101157.09
2018-06-14T03:25:28.948Z,101152.46
2018-06-14T03:27:58.657Z,101164.62
2018-06-14T03:30:28.178Z,101162.98
2018-06-14T03:32:58.047Z,101162.13
2018-06-14T03:35:27.562Z,101159.08
2018-06-14T03:37:56.932Z,101164.32
2018-06-14T03:40:26.455Z,101159.08
2018-06-14T03:42:55.822Z,101158.23
2018-06-14T03:45:29.508Z,101159.82
2018-06-14T03:47:59.032Z,101157.12
2018-06-14T03:50:29.668Z,101154.58
2018-06-14T03:52:59.660Z,101162.56
2018-06-14T03:55:29.147Z,101160.05
2018-06-14T03:57:58.641Z,101154.94
2018-06-14T04:00:28.854Z,101155.91
2018-06-14T04:02:58.366Z,101158.64
2018-06-14T04:05:28.536Z,101156.44
2018-06-14T04:07:58.172Z,101153.40
2018-06-14T04:10:27.645Z,101152.58
2018-06-14T04:12:57.204Z,101157.47
2018-06-14T04:15:26.841Z,101156.98
2018-06-14T04:18:02.867Z,101160.03
2018-06-14T04:20:33.809Z,101156.31
2018-06-14T04:23:03.251Z,101158.02
2018-06-14T04:25:33.183Z,101153.17
2018-06-14T04:28:02.982Z,101153.56
2018-06-14T04:30:32.608Z,101155.02
2018-06-14T04:33:02.222Z,101153.31
2018-06-14T04:35:32.783Z,101154.32
2018-06-14T04:38:02.416Z,101159.53
2018-06-14T04:40:31.817Z,101158.20
2018-06-14T04:43:01.448Z,101157.00
2018-06-14T04:45:30.929Z,101151.77
2018-06-14T04:48:00.535Z,101152.27
2018-06-14T04:50:31.012Z,101155.20
2018-06-14T04:53:00.801Z,101151.55
2018-06-14T04:55:30.459Z,101137.52
2018-06-14T04:58:00.091Z,101140.71
2018-06-14T05:00:29.511Z,101140.22
2018-06-14T05:02:59.145Z,101139.11
2018-06-14T05:05:29.022Z,101142.31
2018-06-14T05:07:58.560Z,101134.11
2018-06-14T05:10:29.559Z,101138.01
2018-06-14T05:13:01.055Z,101126.17
2018-06-14T05:15:30.867Z,101126.88
2018-06-14T05:18:00.760Z,101123.12
2018-06-14T05:20:30.409Z,101124.20
2018-06-14T05:23:00.613Z,101124.06
2018-06-14T05:25:30.623Z,101130.80
2018-06-14T05:28:00.499Z,101135.87
2018-06-14T05:30:30.050Z,101129.20
2018-06-14T05:32:59.964Z,101125.71
2018-06-14T05:35:30.026Z,101122.61
2018-06-14T05:37:59.584Z,101122.73
2018-06-14T05:40:29.593Z,101115.73
2018-06-14T05:43:00.996Z,101116.48
2018-06-14T05:45:30.667Z,101121.39
2018-06-14T05:48:00.251Z,101122.24
2018-06-14T05:50:29.837Z,101115.52
2018-06-14T05:52:59.262Z,101123.24
2018-06-14T05:55:29.074Z,101112.33
2018-06-14T05:58:05.738Z,101114.72
2018-06-14T06:00:35.973Z,101122.22
2018-06-14T06:03:05.836Z,101110.19
2018-06-14T06:05:36.497Z,101111.58
2018-06-14T06:08:06.207Z,101107.26
2018-06-14T06:10:36.022Z,101112.20
2018-06-14T06:13:06.376Z,101109.16
2018-06-14T06:15:36.090Z,101104.45
2018-06-14T06:18:05.582Z,101106.72
2018-06-14T06:20:35.309Z,101107.55
2018-06-14T06:23:05.020Z,101101.05
2018-06-14T06:25:34.720Z,101105.99
2018-06-14T06:28:04.850Z,101092.69
2018-06-14T06:30:35.087Z,101103.97
2018-06-14T06:33:04.637Z,101093.50
2018-06-14T06:35:34.899Z,101097.57
2018-06-14T06:38:04.398Z,101089.97
2018-06-14T06:40:33.853Z,101093.95
2018-06-14T06:43:04.371Z,101089.44
2018-06-14T06:45:33.964Z,101083.12
2018-06-14T06:48:03.805Z,101091.94
2018-06-14T06:50:33.455Z,101088.53
2018-06-14T06:53:03.421Z,101085.78
2018-06-14T06:55:33.355Z,101090.30
2018-06-14T06:58:03.170Z,101083.00
2018-06-14T07:00:32.981Z,101084.41
2018-06-14T07:03:03.401Z,101087.25
2018-06-14T07:05:33.672Z,101087.11
2018-06-14T07:08:03.554Z,101082.49
2018-06-14T07:10:33.502Z,101073.93
2018-06-14T07:13:03.201Z,101069.57
2018-06-14T07:15:33.190Z,101074.40
2018-06-14T07:18:03.136Z,101068.41
2018-06-14T07:20:32.844Z,101073.11
2018-06-14T07:23:03.139Z,101070.88
2018-06-14T07:25:32.957Z,101069.88
2018-06-14T07:28:02.667Z,101072.41
2018-06-14T07:30:32.291Z,101070.30
2018-06-14T07:33:02.257Z,101077.63
2018-06-14T07:35:32.524Z,101071.00
2018-06-14T07:38:02.601Z,101066.63
2018-06-14T07:40:32.164Z,101069.33
2018-06-14T07:43:02.464Z,101075.95
2018-06-14T07:45:32.631Z,101063.02
2018-06-14T07:48:03.344Z,101068.78
2018-06-14T07:50:32.993Z,101070.50
2018-06-14T07:53:02.756Z,101068.73
2018-06-14T07:55:32.140Z,101072.11
2018-06-14T07:58:02.976Z,101071.05
2018-06-14T08:00:32.533Z,101069.11
2018-06-14T08:03:02.207Z,101070.75
2018-06-14T08:05:31.868Z,101063.06
2018-06-14T08:08:01.780Z,101065.71
2018-06-14T08:10:31.519Z,101065.45
2018-06-14T08:13:01.026Z,101056.27
2018-06-14T08:15:30.541Z,101056.02
2018-06-14T08:18:00.372Z,101056.83
2018-06-14T08:20:30.393Z,101056.41
2018-06-14T08:23:00.197Z,101055.30
2018-06-14T08:25:30.272Z,101053.23
2018-06-14T08:28:00.115Z,101049.52
2018-06-14T08:30:29.739Z,101053.87
2018-06-14T08:32:59.901Z,101059.80
2018-06-14T08:35:29.755Z,101063.19
2018-06-14T08:37:59.430Z,101066.42
2018-06-14T08:40:29.694Z,101063.19
2018-06-14T08:42:59.441Z,101064.67
2018-06-14T08:45:29.106Z,101058.27
2018-06-14T08:47:58.961Z,101059.97
2018-06-14T08:50:28.802Z,101060.19
2018-06-14T08:52:58.180Z,101055.11
2018-06-14T08:55:28.839Z,101056.80
2018-06-14T08:57:58.517Z,101052.40
2018-06-14T09:00:29.452Z,101043.35
2018-06-14T09:02:58.947Z,101044.71
2018-06-14T09:05:28.901Z,101042.88
2018-06-14T09:07:58.642Z,101041.69
2018-06-14T09:10:28.298Z,101042.88
2018-06-14T09:12:57.678Z,101049.76
2018-06-14T09:15:27.876Z,101043.72
2018-06-14T09:17:57.451Z,101037.14
2018-06-14T09:20:26.880Z,101044.96
2018-06-14T09:22:56.773Z,101035.32
2018-06-14T09:25:26.633Z,101027.20
2018-06-14T09:27:56.350Z,101027.57
2018-06-14T09:30:26.389Z,101024.16
2018-06-14T09:32:55.641Z,101027.91
2018-06-14T09:35:25.525Z,101025.19
2018-06-14T09:37:54.791Z,101021.27
2018-06-14T09:40:24.247Z,101019.92
2018-06-14T09:42:53.715Z,101017.72
2018-06-14T09:45:23.365Z,101022.11
2018-06-14T09:47:52.796Z,101021.33
2018-06-14T09:50:22.156Z,101007.88
2018-06-14T09:52:54.218Z,101011.03
2018-06-14T09:55:27.297Z,100998.61
2018-06-14T09:57:56.764Z,101004.93
2018-06-14T10:00:30.650Z,100999.11
2018-06-14T10:03:00.301Z,100997.20
2018-06-14T10:05:29.818Z,100996.57
2018-06-14T10:07:59.268Z,100993.11
2018-06-14T10:10:29.971Z,100996.30
2018-06-14T10:12:59.438Z,100995.12
2018-06-14T10:15:28.974Z,100987.03
2018-06-14T10:17:58.761Z,100983.97
2018-06-14T10:20:28.870Z,100986.77
2018-06-14T10:22:59.327Z,100972.16
2018-06-14T10:25:28.811Z,100989.01
2018-06-14T10:27:59.293Z,100987.09
2018-06-14T10:30:29.638Z,101001.08
2018-06-14T10:32:59.185Z,101003.33
2018-06-14T10:35:29.118Z,100992.39
2018-06-14T10:37:58.858Z,100985.52
2018-06-14T10:40:28.521Z,100979.34
2018-06-14T10:43:02.077Z,100982.16
2018-06-14T10:45:32.261Z,100997.09
2018-06-14T10:48:02.227Z,100997.00
2018-06-14T10:50:31.961Z,100980.63
2018-06-14T10:53:01.971Z,100979.46
2018-06-14T10:55:33.427Z,100978.21
2018-06-14T10:58:03.297Z,100982.32
2018-06-14T11:00:34.852Z,100978.25
2018-06-14T11:03:05.709Z,100972.27
2018-06-14T11:05:35.467Z,100966.46
2018-06-14T11:08:05.173Z,100967.14
2018-06-14T11:10:34.845Z,100955.95
2018-06-14T11:13:04.397Z,100968.77
2018-06-14T11:15:33.845Z,100955.05
2018-06-14T11:18:03.305Z,100955.20
2018-06-14T11:20:33.373Z,100950.34
2018-06-14T11:23:02.921Z,100956.78
2018-06-14T11:25:34.416Z,100953.31
2018-06-14T11:28:04.335Z,100954.59
2018-06-14T11:30:34.602Z,100955.31
2018-06-14T11:33:04.939Z,100960.69
2018-06-14T11:35:34.713Z,100942.44
2018-06-14T11:38:04.535Z,100947.16
2018-06-14T11:40:35.601Z,100953.84
2018-06-14T11:43:05.312Z,100944.31
2018-06-14T11:45:46.620Z,100950.67
2018-06-14T11:48:15.916Z,100941.98
2018-06-14T11:50:45.230Z,100942.58
2018-06-14T11:53:15.034Z,100942.89
2018-06-14T11:55:45.261Z,100947.33
2018-06-14T11:58:15.617Z,100933.54
2018-06-14T12:00:45.992Z,100929.34
2018-06-14T12:03:17.469Z,100939.99
2018-06-14T12:05:47.707Z,100926.50
2018-06-14T12:08:18.655Z,100935.16
2018-06-14T12:10:49.376Z,100919.66
2018-06-14T12:13:18.980Z,100918.37
2018-06-14T12:15:48.505Z,100914.70
2018-06-14T12:18:19.306Z,100901.30
2018-06-14T12:20:49.149Z,100922.11
2018-06-14T12:23:18.893Z,100915.23
2018-06-14T12:25:48.714Z,100911.34
2018-06-14T12:28:19.510Z,100909.28
2018-06-14T12:30:49.587Z,100906.20
2018-06-14T12:33:21.132Z,100905.61
2018-06-14T12:35:50.855Z,100911.58
2018-06-14T12:38:20.216Z,100910.42
2018-06-14T12:40:49.534Z,100906.41
2018-06-14T12:43:18.930Z,100897.73
2018-06-14T12:45:50.037Z,100901.19
2018-06-14T12:48:19.370Z,100889.03
2018-06-14T12:50:48.772Z,100899.71
2018-06-14T12:53:18.113Z,100893.50
2018-06-14T12:55:53.162Z,100892.31
2018-06-14T12:58:22.449Z,100890.31
2018-06-14T13:00:51.923Z,100880.77
2018-06-14T13:03:21.268Z,100882.80
2018-06-14T13:05:50.630Z,100877.91
2018-06-14T13:08:19.875Z,100860.80
2018-06-14T13:10:49.342Z,100879.28
2018-06-14T13:13:18.616Z,100874.28
2018-06-14T13:15:47.991Z,100868.75
2018-06-14T13:18:17.942Z,100869.11
2018-06-14T13:20:50.722Z,100872.08
2018-06-14T13:23:23.532Z,100863.61
2018-06-14T13:25:53.292Z,100873.23
2018-06-14T13:28:23.093Z,100868.89
2018-06-14T13:30:53.735Z,100870.73
2018-06-14T13:33:23.712Z,100867.59
2018-06-14T13:35:53.353Z,100862.44
2018-06-14T13:38:24.411Z,100867.22
2018-06-14T13:40:54.543Z,100865.95
2018-06-14T13:43:26.414Z,100860.97
2018-06-14T13:45:55.760Z,100864.03
2018-06-14T13:48:25.138Z,100866.13
2018-06-14T13:50:54.853Z,100860.93
2018-06-14T13:53:24.096Z,100850.72
2018-06-14T13:55:53.440Z,100863.36
2018-06-14T13:58:23.337Z,100856.10
2018-06-14T14:00:53.407Z,100864.30
2018-06-14T14:03:22.477Z,100861.80
2018-06-14T14:05:51.711Z,100861.48
2018-06-14T14:08:20.940Z,100862.52
2018-06-14T14:10:50.191Z,100854.95
2018-06-14T14:13:19.418Z,100861.58
2018-06-14T14:15:48.698Z,100868.23
2018-06-14T14:18:18.000Z,100863.99
2018-06-14T14:20:47.691Z,100858.22
2018-06-14T14:23:17.002Z,100866.51
2018-06-14T14:25:46.201Z,100865.56
2018-06-14T14:28:15.526Z,100853.28
2018-06-14T14:30:44.854Z,100851.46
2018-06-14T14:33:14.113Z,100843.06
2018-06-14T14:35:43.461Z,100849.84
2018-06-14T14:38:13.166Z,100843.45
2018-06-14T14:40:42.614Z,100857.02
2018-06-14T14:43:17.043Z,100854.95
2018-06-14T14:45:46.695Z,100853.23
2018-06-14T14:48:16.121Z,100848.60
2018-06-14T14:50:45.980Z,100844.61
2018-06-14T14:53:15.387Z,100850.61
2018-06-14T14:55:44.530Z,100849.79
2018-06-14T14:58:13.774Z,100849.31
2018-06-14T15:00:43.289Z,100848.55
2018-06-14T15:03:12.889Z,100849.17
2018-06-14T15:05:50.521Z,100855.05
2018-06-14T15:08:21.882Z,100848.00
2018-06-14T15:10:51.314Z,100844.56
2018-06-14T15:13:20.593Z,100844.39
2018-06-14T15:15:49.918Z,100841.89
2018-06-14T15:18:20.626Z,100834.30
2018-06-14T15:20:49.882Z,100833.37
2018-06-14T15:23:19.393Z,100831.97
2018-06-14T15:25:49.482Z,100826.63
2018-06-14T15:28:18.723Z,100834.10
2018-06-14T15:30:47.953Z,100835.70
2018-06-14T15:33:17.581Z,100824.75
2018-06-14T15:35:46.817Z,100828.57
2018-06-14T15:38:16.089Z,100830.97
2018-06-14T15:40:45.444Z,100819.73
2018-06-14T15:43:14.688Z,100822.79
2018-06-14T15:45:43.994Z,100827.64
2018-06-14T15:48:13.816Z,100833.46
2018-06-14T15:50:43.254Z,100839.41
2018-06-14T15:53:13.033Z,100840.68
2018-06-14T15:56:08.329Z,100837.66
2018-06-14T15:58:37.933Z,100843.08
2018-06-14T16:01:08.794Z,100851.50
2018-06-14T16:03:38.449Z,100845.19
2018-06-14T16:06:08.066Z,100855.07
2018-06-14T16:08:38.022Z,100855.26
2018-06-14T16:11:09.095Z,100864.67
2018-06-14T16:13:38.805Z,100871.95
2018-06-14T16:16:08.772Z,100879.62
2018-06-14T16:18:39.312Z,100887.65
2018-06-14T16:21:09.200Z,100882.57
2018-06-14T16:23:39.076Z,100891.05
2018-06-14T16:26:08.833Z,100893.45
2018-06-14T16:28:38.389Z,100901.44
2018-06-14T16:31:07.800Z,100905.68
2018-06-14T16:33:37.342Z,100916.17
2018-06-14T16:36:06.815Z,100917.08
2018-06-14T16:38:36.324Z,100938.25
2018-06-14T16:41:07.620Z,100942.77
2018-06-14T16:43:37.651Z,100949.83
2018-06-14T16:46:07.115Z,100953.08
2018-06-14T16:48:36.893Z,100958.86
2018-06-14T16:51:06.373Z,100972.30
2018-06-14T16:53:35.878Z,100970.44
2018-06-14T16:56:06.479Z,100979.34
2018-06-14T16:58:36.661Z,100982.50
2018-06-14T17:01:06.960Z,100977.35
2018-06-14T17:03:37.051Z,100981.77
2018-06-14T17:06:07.370Z,100991.73
2018-06-14T17:08:37.345Z,100994.64
2018-06-14T17:11:07.541Z,100990.25
2018-06-14T17:13:39.048Z,101001.34
2018-06-14T17:16:11.041Z,100994.80
2018-06-14T17:18:40.714Z,101005.18
2018-06-14T17:21:10.146Z,100998.48
2018-06-14T17:23:40.063Z,100983.74
2018-06-14T17:26:09.583Z,100986.70
2018-06-14T17:28:39.217Z,100987.63
2018-06-14T17:31:09.728Z,100987.28
2018-06-14T17:33:39.141Z,100993.31
2018-06-14T17:36:08.882Z,100989.98
2018-06-14T17:38:38.446Z,100986.49
2018-06-14T17:41:07.901Z,100989.89
2018-06-14T17:43:37.361Z,100983.05
2018-06-14T17:46:07.188Z,100977.91
2018-06-14T17:48:36.472Z,100980.32
2018-06-14T17:51:06.124Z,100980.06
2018-06-14T17:53:35.917Z,100984.75
2018-06-14T17:56:05.704Z,100984.52
2018-06-14T17:58:35.374Z,100974.92
2018-06-14T18:01:05.696Z,100977.70
2018-06-14T18:03:35.817Z,100976.97
2018-06-14T18:06:06.019Z,100973.80
2018-06-14T18:08:35.791Z,100975.35
2018-06-14T18:11:05.629Z,100976.45
2018-06-14T18:13:35.313Z,100979.59
2018-06-14T18:16:04.926Z,100972.79
2018-06-14T18:18:34.359Z,100981.59
2018-06-14T18:21:04.056Z,100975.59
2018-06-14T18:23:34.136Z,100979.22
2018-06-14T18:26:03.697Z,100976.33
2018-06-14T18:28:33.429Z,100972.27
2018-06-14T18:31:03.828Z,100975.42
2018-06-14T18:33:33.391Z,100978.97
2018-06-14T18:36:03.049Z,100984.60
2018-06-14T18:38:32.949Z,100978.41
2018-06-14T18:41:02.531Z,100979.63
2018-06-14T18:43:32.203Z,100984.95
2018-06-14T18:46:02.226Z,100986.45
2018-06-14T18:48:32.402Z,100984.82
2018-06-14T18:51:02.027Z,100984.97
2018-06-14T18:53:31.621Z,100994.92
2018-06-14T18:56:01.809Z,100995.56
2018-06-14T18:58:31.671Z,100993.48
2018-06-14T19:01:02.086Z,100997.43
2018-06-14T19:03:32.199Z,100990.94
2018-06-14T19:06:04.125Z,100997.77
2018-06-14T19:08:34.288Z,100997.27
2018-06-14T19:11:05.088Z,100997.52
2018-06-14T19:13:35.761Z,100986.37
2018-06-14T19:16:07.938Z,100991.50
2018-06-14T19:18:37.905Z,100995.09
2018-06-14T19:21:08.085Z,100997.75
2018-06-14T19:23:37.810Z,100996.19
2018-06-14T19:26:07.893Z,100999.31
2018-06-14T19:28:37.908Z,100994.06
2018-06-14T19:31:07.553Z,100991.88
2018-06-14T19:33:37.534Z,100994.47
2018-06-14T19:36:07.395Z,100994.06
2018-06-14T19:38:37.811Z,100988.32
2018-06-14T19:41:07.547Z,100995.22
2018-06-14T19:43:37.868Z,100996.63
2018-06-14T19:46:08.207Z,101002.58
2018-06-14T19:48:39.950Z,101008.08
2018-06-14T19:51:10.090Z,101004.28
2018-06-14T19:53:41.892Z,101001.05
2018-06-14T19:56:13.642Z,101005.52
2018-06-14T19:58:46.141Z,101008.58
2018-06-14T20:01:15.451Z,100994.50
2018-06-14T20:03:45.378Z,100999.94
2018-06-14T20:06:14.805Z,100996.30
2018-06-14T20:08:44.263Z,100988.20
2018-06-14T20:11:13.764Z,100995.80
2018-06-14T20:13:43.743Z,100996.59
2018-06-14T20:16:13.318Z,100999.59
2018-06-14T20:18:42.828Z,100996.37
2018-06-14T20:21:12.581Z,101000.08
2018-06-14T20:23:42.110Z,101000.08
2018-06-14T20:26:11.640Z,101005.09
2018-06-14T20:28:41.869Z,100995.80
2018-06-14T20:31:11.445Z,101012.84
2018-06-14T20:33:43.033Z,101013.69
2018-06-14T20:36:13.482Z,101005.69
2018-06-14T20:38:42.990Z,101009.78
2018-06-14T20:41:13.623Z,101012.84
2018-06-14T20:43:43.162Z,101019.43
2018-06-14T20:46:12.479Z,101015.97
2018-06-14T20:48:42.024Z,101020.30
2018-06-14T20:51:11.743Z,101022.27
2018-06-14T20:53:41.473Z,101021.27
2018-06-14T20:56:10.944Z,101025.76
2018-06-14T20:58:40.922Z,101027.80
2018-06-14T21:01:10.585Z,101020.80
2018-06-14T21:03:42.028Z,101031.08
2018-06-14T21:06:11.739Z,101032.83
2018-06-14T21:08:41.416Z,101030.93
2018-06-14T21:11:12.698Z,101028.36
2018-06-14T21:13:42.446Z,101027.08
2018-06-14T21:16:12.115Z,101038.05
2018-06-14T21:18:42.238Z,101046.66
2018-06-14T21:21:11.785Z,101038.72
2018-06-14T21:23:41.191Z,101045.38
2018-06-14T21:26:10.930Z,101042.97
2018-06-14T21:28:40.641Z,101044.32
2018-06-14T21:31:10.501Z,101048.08
2018-06-14T21:33:40.384Z,101055.09
2018-06-14T21:36:09.846Z,101066.23
2018-06-14T21:38:39.881Z,101056.80
2018-06-14T21:41:09.762Z,101057.23
2018-06-14T21:43:40.686Z,101063.33
2018-06-14T21:46:10.374Z,101065.42
2018-06-14T21:48:40.441Z,101061.38
2018-06-14T21:51:09.845Z,101055.98
2018-06-14T21:53:39.658Z,101065.77
2018-06-14T21:56:09.464Z,101073.11
2018-06-14T21:58:39.075Z,101064.42
2018-06-14T22:01:09.038Z,101067.62
2018-06-14T22:03:43.752Z,101068.55
2018-06-14T22:06:14.049Z,101069.04
2018-06-14T22:08:43.328Z,101063.51
2018-06-14T22:11:12.631Z,101076.27
2018-06-14T22:13:43.257Z,101078.33
2018-06-14T22:16:12.598Z,101076.27
2018-06-14T22:18:42.063Z,101091.73
2018-06-14T22:21:11.696Z,101088.54
2018-06-14T22:23:41.019Z,101095.27
2018-06-14T22:26:10.306Z,101098.36
2018-06-14T22:28:39.673Z,101097.29
2018-06-14T22:31:09.110Z,101105.16
2018-06-14T22:33:49.976Z,101099.91
2018-06-14T22:36:19.326Z,101102.61
2018-06-14T22:38:49.423Z,101101.89
2018-06-14T22:41:18.685Z,101101.56
2018-06-14T22:43:48.429Z,101104.40
2018-06-14T22:46:17.694Z,101099.39
2018-06-14T22:48:47.866Z,101103.49
2018-06-14T22:51:19.813Z,101112.80
2018-06-14T22:53:49.110Z,101111.23
2018-06-14T22:56:18.369Z,101112.86
2018-06-14T22:58:47.640Z,101114.95
2018-06-14T23:01:32.203Z,101114.36
2018-06-14T23:04:02.494Z,101120.02
2018-06-14T23:06:32.269Z,101116.97
2018-06-14T23:10:05.638Z,101120.52
2018-06-14T23:12:35.055Z,101116.36
2018-06-14T23:15:04.758Z,101116.26
2018-06-14T23:17:34.366Z,101115.13
2018-06-14T23:20:04.438Z,101120.96
2018-06-14T23:22:34.200Z,101116.78
2018-06-14T23:25:03.923Z,101123.08
2018-06-14T23:27:33.541Z,101119.66
2018-06-14T23:30:03.058Z,101129.94
2018-06-14T23:32:32.834Z,101125.56
2018-06-14T23:35:02.401Z,101123.64
2018-06-14T23:37:32.312Z,101130.73
2018-06-14T23:40:02.507Z,101132.13
2018-06-14T23:42:32.175Z,101129.55
2018-06-14T23:45:01.867Z,101134.09
2018-06-14T23:47:31.751Z,101133.50
2018-06-14T23:50:01.413Z,101134.48
2018-06-14T23:52:31.342Z,101137.41
2018-06-14T23:55:01.016Z,101139.75
2018-06-14T23:57:30.896Z,101137.45
